createdAt,value
2023-02-24T00:00:07.966Z,8.48
2023-02-24T00:01:39.458Z,9.02
2023-02-24T00:03:10.886Z,8.98
2023-02-24T00:04:42.185Z,7.15
2023-02-24T00:06:13.538Z,7.20
2023-02-24T00:07:45.166Z,7.05
2023-02-24T00:09:16.621Z,6.71
2023-02-24T00:10:47.968Z,6.97
2023-02-24T00:12:19.282Z,6.09
2023-02-24T00:13:50.828Z,6.43
2023-02-24T00:15:27.316Z,6.08
2023-02-24T00:16:58.877Z,5.88
2023-02-24T00:18:35.449Z,6.17
2023-02-24T00:20:06.831Z,6.42
2023-02-24T00:21:38.120Z,6.37
2023-02-24T00:23:09.427Z,6.29
2023-02-24T00:24:41.209Z,6.15
2023-02-24T00:26:17.740Z,5.96
2023-02-24T00:27:50.346Z,6.63
2023-02-24T00:29:21.894Z,6.39
2023-02-24T00:30:53.472Z,6.14
2023-02-24T00:32:25.387Z,6.46
2023-02-24T00:34:02.985Z,7.25
2023-02-24T00:35:34.557Z,6.75
2023-02-24T00:37:06.210Z,6.36
2023-02-24T00:38:37.723Z,6.52
2023-02-24T00:40:09.610Z,5.85
2023-02-24T00:41:42.138Z,6.36
2023-02-24T00:43:13.722Z,6.05
2023-02-24T00:44:45.858Z,6.31
2023-02-24T00:46:22.418Z,5.68
2023-02-24T00:47:54.326Z,6.09
2023-02-24T00:49:25.984Z,6.04
2023-02-24T00:50:57.571Z,5.79
2023-02-24T00:52:30.992Z,5.38
2023-02-24T00:54:02.513Z,5.57
2023-02-24T00:55:33.879Z,6.38
2023-02-24T00:57:05.215Z,5.92
2023-02-24T00:58:36.487Z,5.45
2023-02-24T01:00:09.030Z,5.90
2023-02-24T01:01:40.911Z,5.20
2023-02-24T01:03:12.258Z,5.51
2023-02-24T01:04:43.612Z,5.30
2023-02-24T01:06:15.207Z,5.53
2023-02-24T01:07:46.443Z,5.36
2023-02-24T01:09:17.786Z,5.19
2023-02-24T01:10:49.159Z,5.24
2023-02-24T01:12:20.645Z,5.67
2023-02-24T01:13:51.845Z,5.40
2023-02-24T01:15:23.142Z,5.73
2023-02-24T01:16:54.587Z,5.24
2023-02-24T01:18:25.824Z,4.74
2023-02-24T01:19:57.242Z,5.31
2023-02-24T01:21:34.089Z,5.73
2023-02-24T01:23:05.476Z,4.89
2023-02-24T01:24:37.000Z,4.91
2023-02-24T01:26:08.440Z,5.28
2023-02-24T01:27:40.020Z,5.08
2023-02-24T01:29:11.405Z,5.35
2023-02-24T01:30:42.595Z,5.30
2023-02-24T01:32:14.036Z,5.40
2023-02-24T01:33:45.585Z,5.76
2023-02-24T01:35:16.943Z,5.51
2023-02-24T01:36:48.577Z,5.59
2023-02-24T01:38:19.963Z,5.35
2023-02-24T01:39:51.298Z,5.14
2023-02-24T01:41:22.705Z,5.70
2023-02-24T01:42:54.257Z,5.41
2023-02-24T01:44:25.897Z,5.35
2023-02-24T01:45:57.323Z,5.05
2023-02-24T01:47:28.821Z,5.29
2023-02-24T01:49:00.107Z,5.31
2023-02-24T01:50:31.367Z,5.13
2023-02-24T01:52:02.808Z,5.34
2023-02-24T01:53:34.199Z,5.68
2023-02-24T01:55:05.483Z,5.74
2023-02-24T01:56:36.953Z,5.71
2023-02-24T01:58:08.486Z,6.03
2023-02-24T01:59:39.977Z,5.91
2023-02-24T02:01:11.317Z,5.79
2023-02-24T02:02:42.879Z,5.93
2023-02-24T02:04:14.968Z,5.55
2023-02-24T02:05:46.713Z,6.23
2023-02-24T02:07:18.267Z,6.17
2023-02-24T02:08:49.810Z,6.20
2023-02-24T02:10:21.061Z,6.58
2023-02-24T02:11:52.393Z,6.87
2023-02-24T02:13:23.697Z,6.44
2023-02-24T02:14:55.097Z,6.66
2023-02-24T02:16:26.449Z,7.18
2023-02-24T02:17:57.788Z,6.62
2023-02-24T02:19:29.527Z,6.69
2023-02-24T02:21:01.155Z,7.06
2023-02-24T02:22:32.615Z,6.65
2023-02-24T02:24:03.976Z,7.22
2023-02-24T02:25:35.536Z,7.54
2023-02-24T02:27:07.071Z,7.78
2023-02-24T02:28:38.337Z,8.04
2023-02-24T02:30:09.676Z,7.52
2023-02-24T02:31:41.299Z,7.32
2023-02-24T02:33:12.583Z,7.79
2023-02-24T02:34:43.909Z,8.17
2023-02-24T02:36:15.510Z,8.42
2023-02-24T02:37:46.769Z,7.14
2023-02-24T02:39:18.371Z,6.78
2023-02-24T02:40:49.573Z,7.00
2023-02-24T02:42:21.116Z,7.45
2023-02-24T02:43:52.627Z,7.61
2023-02-24T02:45:24.075Z,7.08
2023-02-24T02:46:55.495Z,6.85
2023-02-24T02:48:27.093Z,6.24
2023-02-24T02:49:58.308Z,6.45
2023-02-24T02:51:29.689Z,6.81
2023-02-24T02:53:01.293Z,6.41
2023-02-24T02:54:32.819Z,6.94
2023-02-24T02:56:04.053Z,6.99
2023-02-24T02:57:35.282Z,6.53
2023-02-24T02:59:06.719Z,6.78
2023-02-24T03:00:38.176Z,6.64
2023-02-24T03:02:09.835Z,7.05
2023-02-24T03:03:41.278Z,7.02
2023-02-24T03:05:12.690Z,6.50
2023-02-24T03:06:44.238Z,6.74
2023-02-24T03:08:15.617Z,6.92
2023-02-24T03:09:47.072Z,7.06
2023-02-24T03:11:18.586Z,7.13
2023-02-24T03:12:50.011Z,7.16
2023-02-24T03:14:21.538Z,6.54
2023-02-24T03:15:53.063Z,6.11
2023-02-24T03:17:24.454Z,6.11
2023-02-24T03:18:55.816Z,6.56
2023-02-24T03:20:27.725Z,6.27
2023-02-24T03:21:59.182Z,6.68
2023-02-24T03:23:30.782Z,6.16
2023-02-24T03:25:02.287Z,6.29
2023-02-24T03:26:38.570Z,6.15
2023-02-24T03:28:09.958Z,6.16
2023-02-24T03:29:41.434Z,6.32
2023-02-24T03:31:13.001Z,6.10
2023-02-24T03:32:44.430Z,6.25
2023-02-24T03:34:15.771Z,6.22
2023-02-24T03:35:47.150Z,6.14
2023-02-24T03:37:18.691Z,5.93
2023-02-24T03:38:50.062Z,5.89
2023-02-24T03:40:21.586Z,5.87
2023-02-24T03:41:52.859Z,5.45
2023-02-24T03:43:24.100Z,5.56
2023-02-24T03:44:55.654Z,5.63
2023-02-24T03:46:26.969Z,5.60
2023-02-24T03:47:58.426Z,5.11
2023-02-24T03:49:29.695Z,4.89
2023-02-24T03:51:01.136Z,5.03
2023-02-24T03:52:32.456Z,5.14
2023-02-24T03:54:03.826Z,5.28
2023-02-24T03:55:35.197Z,5.07
2023-02-24T03:57:06.581Z,5.05
2023-02-24T03:58:37.820Z,4.92
2023-02-24T04:00:09.340Z,5.58
2023-02-24T04:01:40.818Z,4.48
2023-02-24T04:03:13.432Z,5.20
2023-02-24T04:04:45.342Z,4.72
2023-02-24T04:06:16.689Z,4.79
2023-02-24T04:07:48.227Z,4.45
2023-02-24T04:09:19.771Z,4.60
2023-02-24T04:10:51.520Z,4.86
2023-02-24T04:12:22.770Z,4.91
2023-02-24T04:13:54.372Z,4.31
2023-02-24T04:15:25.664Z,4.79
2023-02-24T04:16:57.049Z,5.08
2023-02-24T04:18:28.316Z,4.82
2023-02-24T04:19:59.631Z,4.94
2023-02-24T04:21:30.871Z,4.92
2023-02-24T04:23:02.438Z,4.74
2023-02-24T04:24:38.906Z,5.19
2023-02-24T04:26:10.226Z,5.18
2023-02-24T04:27:41.663Z,5.12
2023-02-24T04:29:13.060Z,4.78
2023-02-24T04:30:44.591Z,5.12
2023-02-24T04:32:16.398Z,4.82
2023-02-24T04:33:47.787Z,4.89
2023-02-24T04:35:19.039Z,4.50
2023-02-24T04:36:50.436Z,4.68
2023-02-24T04:38:22.271Z,4.70
2023-02-24T04:39:53.762Z,4.84
2023-02-24T04:41:25.016Z,4.76
2023-02-24T04:42:56.361Z,4.82
2023-02-24T04:44:28.144Z,4.59
2023-02-24T04:45:59.405Z,4.10
2023-02-24T04:47:30.837Z,4.42
2023-02-24T04:49:02.165Z,4.15
2023-02-24T04:50:33.410Z,4.36
2023-02-24T04:52:04.628Z,4.41
2023-02-24T04:53:36.037Z,4.17
2023-02-24T04:55:07.634Z,4.28
2023-02-24T04:56:39.373Z,4.28
2023-02-24T04:58:10.891Z,4.25
2023-02-24T04:59:42.408Z,4.12
2023-02-24T05:01:13.638Z,4.26
2023-02-24T05:02:45.091Z,3.93
2023-02-24T05:04:16.387Z,4.16
2023-02-24T05:05:47.921Z,4.48
2023-02-24T05:07:19.114Z,4.56
2023-02-24T05:08:50.347Z,4.17
2023-02-24T05:10:21.762Z,4.40
2023-02-24T05:11:53.027Z,4.44
2023-02-24T05:13:24.296Z,3.78
2023-02-24T05:14:55.534Z,4.14
2023-02-24T05:16:26.952Z,4.22
2023-02-24T05:17:58.238Z,4.21
2023-02-24T05:19:29.540Z,4.45
2023-02-24T05:21:01.855Z,4.02
2023-02-24T05:22:33.726Z,4.04
2023-02-24T05:24:05.212Z,4.35
2023-02-24T05:25:36.549Z,3.81
2023-02-24T05:27:07.775Z,3.88
2023-02-24T05:28:39.118Z,4.25
2023-02-24T05:30:10.476Z,3.87
2023-02-24T05:31:42.205Z,3.91
2023-02-24T05:33:13.549Z,4.09
2023-02-24T05:34:45.002Z,3.95
2023-02-24T05:36:16.347Z,4.13
2023-02-24T05:37:47.674Z,4.18
2023-02-24T05:39:19.041Z,3.72
2023-02-24T05:40:50.477Z,3.88
2023-02-24T05:42:22.212Z,3.93
2023-02-24T05:43:53.866Z,3.97
2023-02-24T05:45:25.221Z,4.28
2023-02-24T05:46:56.524Z,4.16
2023-02-24T05:48:27.835Z,4.26
2023-02-24T05:49:59.062Z,4.01
2023-02-24T05:51:30.447Z,4.12
2023-02-24T05:53:02.093Z,4.39
2023-02-24T05:54:48.926Z,4.16
2023-02-24T05:56:20.210Z,4.36
2023-02-24T05:57:51.549Z,3.99
2023-02-24T05:59:22.992Z,4.19
2023-02-24T06:00:54.212Z,5.03
2023-02-24T06:02:25.510Z,4.27
2023-02-24T06:03:58.183Z,4.42
2023-02-24T06:05:29.718Z,4.53
2023-02-24T06:07:00.910Z,4.67
2023-02-24T06:08:37.330Z,4.96
2023-02-24T06:10:08.724Z,5.33
2023-02-24T06:11:40.154Z,5.75
2023-02-24T06:13:11.508Z,5.26
2023-02-24T06:14:43.032Z,5.34
2023-02-24T06:16:14.475Z,5.44
2023-02-24T06:17:45.888Z,5.62
2023-02-24T06:19:17.696Z,5.50
2023-02-24T06:20:49.085Z,5.46
2023-02-24T06:22:20.414Z,5.58
2023-02-24T06:23:51.893Z,5.60
2023-02-24T06:25:23.088Z,5.81
2023-02-24T06:26:54.470Z,6.10
2023-02-24T06:28:26.010Z,5.83
2023-02-24T06:29:57.381Z,5.59
2023-02-24T06:31:29.879Z,5.62
2023-02-24T06:33:27.377Z,6.08
2023-02-24T06:34:58.687Z,5.91
2023-02-24T06:36:30.266Z,5.85
2023-02-24T06:38:01.755Z,6.02
2023-02-24T06:39:35.498Z,6.14
2023-02-24T06:41:07.807Z,5.22
2023-02-24T06:42:39.198Z,5.33
2023-02-24T06:44:10.761Z,4.25
2023-02-24T06:45:42.344Z,4.09
2023-02-24T06:47:14.032Z,4.46
2023-02-24T06:48:45.448Z,4.55
2023-02-24T06:50:16.838Z,4.79
2023-02-24T06:51:48.373Z,4.72
2023-02-24T06:53:19.787Z,5.07
2023-02-24T06:54:51.240Z,4.64
2023-02-24T06:56:22.556Z,4.77
2023-02-24T06:57:53.828Z,5.14
2023-02-24T06:59:30.195Z,4.77
2023-02-24T07:01:01.672Z,4.00
2023-02-24T07:02:33.120Z,3.80
2023-02-24T07:04:05.703Z,4.36
2023-02-24T07:05:37.179Z,4.17
2023-02-24T07:07:08.407Z,4.05
2023-02-24T07:08:39.772Z,4.64
2023-02-24T07:10:11.105Z,4.38
2023-02-24T07:11:44.069Z,3.83
2023-02-24T07:13:16.947Z,3.73
2023-02-24T07:14:49.203Z,4.26
2023-02-24T07:16:21.446Z,3.69
2023-02-24T07:17:54.036Z,4.16
2023-02-24T07:19:26.560Z,4.22
2023-02-24T07:20:58.980Z,3.74
2023-02-24T07:22:31.364Z,3.86
2023-02-24T07:24:03.909Z,4.14
2023-02-24T07:25:36.449Z,4.13
2023-02-24T07:27:08.914Z,3.71
2023-02-24T07:28:40.986Z,3.67
2023-02-24T07:30:13.971Z,3.66
2023-02-24T07:31:46.687Z,3.58
2023-02-24T07:33:18.856Z,3.13
2023-02-24T07:34:51.314Z,3.64
2023-02-24T07:36:23.822Z,3.76
2023-02-24T07:37:57.008Z,3.81
2023-02-24T07:39:30.199Z,3.90
2023-02-24T07:41:02.502Z,4.04
2023-02-24T07:42:35.480Z,4.50
2023-02-24T07:44:07.360Z,4.41
2023-02-24T07:45:40.644Z,4.36
2023-02-24T07:47:13.493Z,4.43
2023-02-24T07:48:51.830Z,4.61
2023-02-24T07:50:24.851Z,4.83
2023-02-24T07:51:58.477Z,4.22
2023-02-24T07:53:31.196Z,4.74
2023-02-24T07:55:03.403Z,5.02
2023-02-24T07:56:35.996Z,4.99
2023-02-24T07:58:08.339Z,4.50
2023-02-24T07:59:41.110Z,4.87
2023-02-24T08:01:13.363Z,4.88
2023-02-24T08:02:45.492Z,5.20
2023-02-24T08:04:16.920Z,4.76
2023-02-24T08:05:48.239Z,4.90
2023-02-24T08:07:19.707Z,4.37
2023-02-24T08:08:51.023Z,4.41
2023-02-24T08:10:22.406Z,4.79
2023-02-24T08:11:53.692Z,4.48
2023-02-24T08:13:25.662Z,3.73
2023-02-24T08:14:57.001Z,3.98
2023-02-24T08:16:28.644Z,3.86
2023-02-24T08:18:00.450Z,4.30
2023-02-24T08:19:32.392Z,3.18
2023-02-24T08:21:04.379Z,3.28
2023-02-24T08:22:35.575Z,3.38
2023-02-24T08:24:06.818Z,3.17
2023-02-24T08:25:38.398Z,3.67
2023-02-24T08:27:09.744Z,3.66
2023-02-24T08:28:40.982Z,3.45
2023-02-24T08:30:12.422Z,3.33
2023-02-24T08:31:44.228Z,2.73
2023-02-24T08:33:15.480Z,3.39
2023-02-24T08:34:47.222Z,3.10
2023-02-24T08:36:18.560Z,2.89
2023-02-24T08:37:49.950Z,3.17
2023-02-24T08:39:21.554Z,2.81
2023-02-24T08:40:52.976Z,2.74
2023-02-24T08:42:35.333Z,2.85
2023-02-24T08:44:07.109Z,2.90
2023-02-24T08:45:38.651Z,2.31
2023-02-24T08:47:10.114Z,2.63
2023-02-24T08:48:41.699Z,1.91
2023-02-24T08:50:13.181Z,2.12
2023-02-24T08:52:06.495Z,2.27
2023-02-24T08:53:38.035Z,2.54
2023-02-24T08:55:09.308Z,2.66
2023-02-24T08:56:41.965Z,2.75
2023-02-24T08:58:13.479Z,2.64
2023-02-24T08:59:45.091Z,3.05
2023-02-24T09:01:16.822Z,3.48
2023-02-24T09:02:49.064Z,3.24
2023-02-24T09:04:20.862Z,3.71
2023-02-24T09:05:52.450Z,3.28
2023-02-24T09:07:23.778Z,3.35
2023-02-24T09:08:55.322Z,3.38
2023-02-24T09:10:26.690Z,3.65
2023-02-24T09:11:58.159Z,3.30
2023-02-24T09:13:29.553Z,2.65
2023-02-24T09:15:00.992Z,3.21
2023-02-24T09:16:32.626Z,3.73
2023-02-24T09:18:04.189Z,3.35
2023-02-24T09:19:35.487Z,3.69
2023-02-24T09:21:07.506Z,3.74
2023-02-24T09:22:38.963Z,3.46
2023-02-24T09:24:10.439Z,3.17
2023-02-24T09:25:41.701Z,3.66
2023-02-24T09:27:13.239Z,3.79
2023-02-24T09:28:46.458Z,2.96
2023-02-24T09:30:17.846Z,3.81
2023-02-24T09:31:49.780Z,3.67
2023-02-24T09:33:21.389Z,3.81
2023-02-24T09:34:53.480Z,3.47
2023-02-24T09:36:25.386Z,3.02
2023-02-24T09:37:56.733Z,3.84
2023-02-24T09:39:28.010Z,3.59
2023-02-24T09:41:02.753Z,4.11
2023-02-24T09:44:48.707Z,4.49
2023-02-24T09:46:20.618Z,4.36
2023-02-24T09:47:57.701Z,4.50
2023-02-24T09:49:30.026Z,2.90
2023-02-24T09:51:08.803Z,3.56
2023-02-24T09:52:40.384Z,2.69
2023-02-24T09:54:21.820Z,2.68
2023-02-24T09:55:53.349Z,2.73
2023-02-24T09:57:24.644Z,2.37
2023-02-24T09:59:01.555Z,2.59
2023-02-24T10:00:42.980Z,3.30
2023-02-24T10:02:14.516Z,2.18
2023-02-24T10:03:46.019Z,2.09
2023-02-24T10:05:17.481Z,3.19
2023-02-24T10:06:48.956Z,2.59
2023-02-24T10:08:20.874Z,2.87
2023-02-24T10:09:52.356Z,3.47
2023-02-24T10:11:24.002Z,3.34
2023-02-24T10:12:55.476Z,3.74
2023-02-24T10:14:29.400Z,3.23
2023-02-24T10:16:06.709Z,2.89
2023-02-24T10:17:38.132Z,3.24
2023-02-24T10:19:09.576Z,3.40
2023-02-24T10:20:41.227Z,2.83
2023-02-24T10:22:12.658Z,3.31
2023-02-24T10:23:44.075Z,3.07
2023-02-24T10:25:21.147Z,2.98
2023-02-24T10:27:00.935Z,3.39
2023-02-24T10:28:32.622Z,2.37
2023-02-24T10:30:04.090Z,2.52
2023-02-24T10:31:35.797Z,2.79
2023-02-24T10:33:07.958Z,3.27
2023-02-24T10:34:39.553Z,2.87
2023-02-24T10:36:11.256Z,2.87
2023-02-24T10:37:42.601Z,2.29
2023-02-24T10:39:13.849Z,2.38
2023-02-24T10:40:45.314Z,2.50
2023-02-24T10:42:16.716Z,3.20
2023-02-24T10:43:48.137Z,2.41
2023-02-24T10:45:20.691Z,2.19
2023-02-24T10:46:52.760Z,2.64
2023-02-24T10:48:32.313Z,2.61
2023-02-24T10:50:10.690Z,2.83
2023-02-24T10:51:42.317Z,2.38
2023-02-24T10:53:13.831Z,2.90
2023-02-24T10:54:45.731Z,3.16
2023-02-24T10:56:17.131Z,2.70
2023-02-24T10:57:58.541Z,2.56
2023-02-24T10:59:30.496Z,2.64
2023-02-24T11:01:01.944Z,2.23
2023-02-24T11:02:33.316Z,2.65
2023-02-24T11:04:04.665Z,3.14
2023-02-24T11:05:35.923Z,2.88
2023-02-24T11:07:07.558Z,2.42
2023-02-24T11:08:39.097Z,3.59
2023-02-24T11:10:10.580Z,2.61
2023-02-24T11:11:42.608Z,2.67
2023-02-24T11:13:13.832Z,3.09
2023-02-24T11:14:45.081Z,2.34
2023-02-24T11:16:16.396Z,2.80
2023-02-24T11:17:48.145Z,3.06
2023-02-24T11:19:19.401Z,2.79
2023-02-24T11:20:50.760Z,3.22
2023-02-24T11:22:21.943Z,2.89
2023-02-24T11:23:53.292Z,3.39
2023-02-24T11:25:24.546Z,3.26
2023-02-24T11:26:56.287Z,2.91
2023-02-24T11:28:27.714Z,2.41
2023-02-24T11:29:58.967Z,2.27
2023-02-24T11:31:30.265Z,2.68
2023-02-24T11:33:01.507Z,2.56
2023-02-24T11:34:32.966Z,3.18
2023-02-24T11:36:04.531Z,3.30
2023-02-24T11:37:35.806Z,3.61
2023-02-24T11:39:18.119Z,2.20
2023-02-24T11:40:52.428Z,2.32
2023-02-24T11:42:23.864Z,2.94
2023-02-24T11:43:55.417Z,2.79
2023-02-24T11:45:26.902Z,3.01
2023-02-24T11:46:58.450Z,3.60
2023-02-24T11:48:29.961Z,2.94
2023-02-24T11:50:03.801Z,3.33
2023-02-24T11:51:36.155Z,3.46
2023-02-24T11:53:07.453Z,2.27
2023-02-24T11:54:39.058Z,2.67
2023-02-24T11:56:10.622Z,3.03
2023-02-24T11:57:42.067Z,3.29
2023-02-24T11:59:13.391Z,3.14
2023-02-24T12:00:45.828Z,2.79
2023-02-24T12:02:18.460Z,3.17
2023-02-24T12:03:50.228Z,4.17
2023-02-24T12:05:22.299Z,4.22
2023-02-24T12:06:54.096Z,4.32
2023-02-24T12:08:25.694Z,3.65
2023-02-24T12:10:06.979Z,3.68
2023-02-24T12:11:42.078Z,3.52
2023-02-24T12:13:13.350Z,3.80
2023-02-24T12:14:44.575Z,4.38
2023-02-24T12:16:15.977Z,4.36
2023-02-24T12:17:47.550Z,5.48
2023-02-24T12:19:19.228Z,4.41
2023-02-24T12:20:50.743Z,4.49
2023-02-24T12:22:21.954Z,4.51
2023-02-24T12:23:53.523Z,3.74
2023-02-24T12:25:24.871Z,4.71
2023-02-24T12:26:56.197Z,4.19
2023-02-24T12:28:27.621Z,3.78
2023-02-24T12:29:59.680Z,4.65
2023-02-24T12:31:31.252Z,3.61
2023-02-24T12:33:02.782Z,5.24
2023-02-24T12:34:34.305Z,5.62
2023-02-24T12:36:05.912Z,5.29
2023-02-24T12:37:37.499Z,5.92
2023-02-24T12:39:08.801Z,5.90
2023-02-24T12:40:40.115Z,3.83
2023-02-24T12:42:11.342Z,4.34
2023-02-24T12:43:42.622Z,4.97
2023-02-24T12:45:13.947Z,6.68
2023-02-24T12:46:45.528Z,7.30
2023-02-24T12:48:16.701Z,7.12
2023-02-24T12:49:47.935Z,6.27
2023-02-24T12:51:20.694Z,6.06
2023-02-24T12:52:52.296Z,5.67
2023-02-24T12:54:23.641Z,5.65
2023-02-24T12:55:54.910Z,5.58
2023-02-24T12:57:26.266Z,5.87
2023-02-24T12:58:57.790Z,4.50
2023-02-24T13:00:29.143Z,5.44
2023-02-24T13:02:00.421Z,5.34
2023-02-24T13:03:31.935Z,4.37
2023-02-24T13:05:03.118Z,4.80
2023-02-24T13:06:34.807Z,4.43
2023-02-24T13:08:06.422Z,4.16
2023-02-24T13:09:37.942Z,4.84
2023-02-24T13:11:09.223Z,4.07
2023-02-24T13:12:40.475Z,3.38
2023-02-24T13:14:11.829Z,3.85
2023-02-24T13:15:43.572Z,3.43
2023-02-24T13:17:15.236Z,4.54
2023-02-24T13:18:48.962Z,5.43
2023-02-24T13:20:20.425Z,4.40
2023-02-24T13:21:51.839Z,4.35
2023-02-24T13:23:23.209Z,3.60
2023-02-24T13:24:54.726Z,3.09
2023-02-24T13:26:26.046Z,4.61
2023-02-24T13:28:41.048Z,4.58
2023-02-24T13:30:13.412Z,4.67
2023-02-24T13:31:44.815Z,5.26
2023-02-24T13:33:16.345Z,5.71
2023-02-24T13:34:47.715Z,6.02
2023-02-24T13:36:19.019Z,5.63
2023-02-24T13:37:50.248Z,5.49
2023-02-24T13:39:21.728Z,4.26
2023-02-24T13:40:53.162Z,4.09
2023-02-24T13:42:24.962Z,3.65
2023-02-24T13:43:56.542Z,4.11
2023-02-24T13:45:27.767Z,4.79
2023-02-24T13:46:59.547Z,4.57
2023-02-24T13:48:30.775Z,5.04
2023-02-24T13:50:02.388Z,5.38
2023-02-24T13:51:33.841Z,4.61
2023-02-24T13:53:05.315Z,4.33
2023-02-24T13:54:36.459Z,5.49
2023-02-24T13:56:07.694Z,5.65
2023-02-24T13:57:39.038Z,5.30
2023-02-24T13:59:10.399Z,4.40
2023-02-24T14:00:41.681Z,5.30
2023-02-24T14:02:13.107Z,5.04
2023-02-24T14:03:44.584Z,3.95
2023-02-24T14:05:16.278Z,3.94
2023-02-24T14:06:47.736Z,4.90
2023-02-24T14:08:19.100Z,5.13
2023-02-24T14:09:50.697Z,4.55
2023-02-24T14:11:22.330Z,4.41
2023-02-24T14:12:54.007Z,5.27
2023-02-24T14:14:25.355Z,6.48
2023-02-24T14:15:56.716Z,6.40
2023-02-24T14:17:27.922Z,5.76
2023-02-24T14:18:59.259Z,6.35
2023-02-24T14:20:30.769Z,6.95
2023-02-24T14:22:02.106Z,6.52
2023-02-24T14:23:33.541Z,7.91
2023-02-24T14:25:04.757Z,6.63
2023-02-24T14:26:36.097Z,7.34
2023-02-24T14:28:07.583Z,7.71
2023-02-24T14:29:44.154Z,5.27
2023-02-24T14:31:15.864Z,7.18
2023-02-24T14:32:47.400Z,7.44
2023-02-24T14:34:18.833Z,6.92
2023-02-24T14:35:50.161Z,8.96
2023-02-24T14:37:21.468Z,8.68
2023-02-24T14:38:52.860Z,8.25
2023-02-24T14:40:24.036Z,8.47
2023-02-24T14:41:55.388Z,6.18
2023-02-24T14:43:26.617Z,6.92
2023-02-24T14:44:57.921Z,7.53
2023-02-24T14:46:29.808Z,6.18
2023-02-24T14:48:01.245Z,7.93
2023-02-24T14:49:33.648Z,8.59
2023-02-24T14:51:04.975Z,7.88
2023-02-24T14:52:36.595Z,7.13
2023-02-24T14:54:07.920Z,5.45
2023-02-24T14:55:39.735Z,9.58
2023-02-24T14:57:11.250Z,9.26
2023-02-24T14:58:43.588Z,7.72
2023-02-24T15:00:15.002Z,8.43
2023-02-24T15:01:46.284Z,8.25
2023-02-24T15:03:17.663Z,9.80
2023-02-24T15:04:49.334Z,10.02
2023-02-24T15:06:47.676Z,10.59
2023-02-24T15:08:19.706Z,10.17
2023-02-24T15:10:17.491Z,10.84
2023-02-24T15:11:49.151Z,9.35
2023-02-24T15:13:30.935Z,9.09
2023-02-24T15:15:22.138Z,7.73
2023-02-24T15:16:53.402Z,8.73
2023-02-24T15:18:25.035Z,10.96
2023-02-24T15:19:56.638Z,11.05
2023-02-24T15:21:28.258Z,11.67
2023-02-24T15:22:59.710Z,10.94
2023-02-24T15:24:31.045Z,12.58
2023-02-24T15:26:12.628Z,11.89
2023-02-24T15:27:57.150Z,13.50
2023-02-24T15:29:28.396Z,13.08
2023-02-24T15:31:00.058Z,12.08
2023-02-24T15:32:31.496Z,13.52
2023-02-24T15:34:02.750Z,17.35
2023-02-24T15:36:20.709Z,18.00
2023-02-24T15:37:53.881Z,19.47
2023-02-24T15:40:06.675Z,15.80
2023-02-24T15:41:48.003Z,15.19
2023-02-24T15:43:43.841Z,14.60
2023-02-24T15:45:15.270Z,17.88
2023-02-24T15:47:24.605Z,17.66
2023-02-24T15:48:56.617Z,18.95
2023-02-24T15:50:36.866Z,17.38
2023-02-24T15:52:08.451Z,17.93
2023-02-24T15:53:49.724Z,19.47
2023-02-24T15:55:57.813Z,18.96
2023-02-24T15:57:29.637Z,18.02
2023-02-24T15:59:01.376Z,17.51
2023-02-24T16:00:32.965Z,15.87
2023-02-24T16:02:04.700Z,13.53
2023-02-24T16:03:37.214Z,14.23
2023-02-24T16:05:09.019Z,18.52
2023-02-24T16:06:47.789Z,20.74
2023-02-24T16:08:19.455Z,21.34
2023-02-24T16:10:37.178Z,21.94
2023-02-24T16:12:08.711Z,21.27
2023-02-24T16:13:51.031Z,18.02
2023-02-24T16:15:22.890Z,20.79
2023-02-24T16:16:54.185Z,20.56
2023-02-24T16:18:52.354Z,23.66
2023-02-24T16:20:23.853Z,21.59
2023-02-24T16:21:55.169Z,21.18
2023-02-24T16:23:26.539Z,18.51
2023-02-24T16:24:57.870Z,22.31
2023-02-24T16:26:29.188Z,20.76
2023-02-24T16:28:10.608Z,20.69
2023-02-24T16:30:13.106Z,23.81
2023-02-24T16:31:44.876Z,19.84
2023-02-24T16:33:16.539Z,17.16
2023-02-24T16:34:47.951Z,19.40
2023-02-24T16:36:21.558Z,24.21
2023-02-24T16:38:20.509Z,25.02
2023-02-24T16:39:52.217Z,24.60
2023-02-24T16:41:23.645Z,19.98
2023-02-24T16:43:19.589Z,17.51
2023-02-24T16:44:50.943Z,17.12
2023-02-24T16:46:38.158Z,13.34
2023-02-24T16:48:09.491Z,15.17
2023-02-24T16:49:40.974Z,14.88
2023-02-24T16:51:12.204Z,15.79
2023-02-24T16:52:48.662Z,12.58
2023-02-24T16:54:21.673Z,14.21
2023-02-24T16:55:53.285Z,13.32
2023-02-24T16:57:24.636Z,15.63
2023-02-24T16:59:15.918Z,14.83
2023-02-24T17:00:49.673Z,15.29
2023-02-24T17:02:21.149Z,14.28
2023-02-24T17:03:52.812Z,14.81
2023-02-24T17:05:24.371Z,14.62
2023-02-24T17:06:56.041Z,13.23
2023-02-24T17:08:27.451Z,13.23
2023-02-24T17:09:58.891Z,13.29
2023-02-24T17:11:30.525Z,11.37
2023-02-24T17:13:12.002Z,7.78
2023-02-24T17:14:43.538Z,7.57
2023-02-24T17:16:15.003Z,7.57
2023-02-24T17:17:46.307Z,7.30
2023-02-24T17:19:55.504Z,8.83
2023-02-24T17:21:27.229Z,8.84
2023-02-24T17:22:58.678Z,10.79
2023-02-24T17:24:30.537Z,10.62
2023-02-24T17:26:01.906Z,10.27
2023-02-24T17:27:33.649Z,10.84
2023-02-24T17:29:05.668Z,10.27
2023-02-24T17:30:53.947Z,9.46
2023-02-24T17:32:25.736Z,7.94
2023-02-24T17:34:30.425Z,9.35
2023-02-24T17:36:02.126Z,7.84
2023-02-24T17:37:33.459Z,10.51
2023-02-24T17:39:34.416Z,8.34
2023-02-24T17:41:06.232Z,7.03
2023-02-24T17:42:38.346Z,9.56
2023-02-24T17:44:10.158Z,9.62
2023-02-24T17:45:41.501Z,7.64
2023-02-24T17:47:22.835Z,7.55
2023-02-24T17:49:04.138Z,6.92
2023-02-24T17:50:55.567Z,6.51
2023-02-24T17:52:26.845Z,8.85
2023-02-24T17:53:58.361Z,9.49
2023-02-24T17:55:30.062Z,8.39
2023-02-24T17:57:23.346Z,7.59
2023-02-24T17:58:55.457Z,6.87
2023-02-24T18:00:26.870Z,7.28
2023-02-24T18:01:58.132Z,6.94
2023-02-24T18:03:57.551Z,6.21
2023-02-24T18:05:29.005Z,4.93
2023-02-24T18:07:36.000Z,6.75
2023-02-24T18:09:07.598Z,6.81
2023-02-24T18:10:39.843Z,6.85
2023-02-24T18:12:11.809Z,5.20
2023-02-24T18:13:48.797Z,4.70
2023-02-24T18:15:21.636Z,4.80
2023-02-24T18:16:53.104Z,4.36
2023-02-24T18:18:39.725Z,3.51
2023-02-24T18:20:21.340Z,3.38
2023-02-24T18:22:02.967Z,2.54
2023-02-24T18:25:40.534Z,2.64
2023-02-24T18:27:12.250Z,2.36
2023-02-24T18:28:43.946Z,2.38
2023-02-24T18:30:15.751Z,2.17
2023-02-24T18:31:47.653Z,2.36
2023-02-24T18:33:32.810Z,2.26
2023-02-24T18:35:09.569Z,2.37
2023-02-24T18:36:40.820Z,2.40
2023-02-24T18:38:22.048Z,2.40
2023-02-24T18:39:53.709Z,2.57
2023-02-24T18:41:25.143Z,2.75
2023-02-24T18:43:26.870Z,2.11
2023-02-24T18:44:58.936Z,2.06
2023-02-24T18:46:31.102Z,1.90
2023-02-24T18:48:03.846Z,2.00
2023-02-24T18:49:35.852Z,2.18
2023-02-24T18:51:07.384Z,2.18
2023-02-24T18:52:38.985Z,2.06
2023-02-24T18:54:10.210Z,2.08
2023-02-24T18:55:41.453Z,2.13
2023-02-24T18:57:13.474Z,2.14
2023-02-24T18:58:44.851Z,2.60
2023-02-24T19:02:10.424Z,2.39
2023-02-24T19:03:41.844Z,2.36
2023-02-24T19:05:13.112Z,2.18
2023-02-24T19:07:07.026Z,2.38
2023-02-24T19:08:38.954Z,2.48
2023-02-24T19:10:15.902Z,2.96
2023-02-24T19:11:47.540Z,2.23
2023-02-24T19:13:19.162Z,2.32
2023-02-24T19:14:50.851Z,2.57
2023-02-24T19:16:23.055Z,2.64
2023-02-24T19:18:38.549Z,2.51
2023-02-24T19:20:09.817Z,2.38
2023-02-24T19:21:41.071Z,2.46
2023-02-24T19:23:12.377Z,2.00
2023-02-24T19:24:43.740Z,2.44
2023-02-24T19:26:15.212Z,2.29
2023-02-24T19:29:55.501Z,2.34
2023-02-24T19:31:27.387Z,2.45
2023-02-24T19:33:06.317Z,2.38
2023-02-24T19:34:38.286Z,2.17
2023-02-24T19:36:10.265Z,2.20
2023-02-24T19:37:47.145Z,2.31
2023-02-24T19:39:19.209Z,2.51
2023-02-24T19:40:51.426Z,2.38
2023-02-24T19:42:23.080Z,2.19
2023-02-24T19:43:54.873Z,2.35
2023-02-24T19:45:26.697Z,2.68
2023-02-24T19:46:58.505Z,2.91
2023-02-24T19:48:32.236Z,3.04
2023-02-24T19:50:03.871Z,2.94
2023-02-24T19:51:35.201Z,2.67
2023-02-24T19:53:06.615Z,2.28
2023-02-24T19:54:38.032Z,2.20
2023-02-24T19:56:20.648Z,2.35
2023-02-24T19:57:52.349Z,2.08
2023-02-24T19:59:24.217Z,2.57
2023-02-24T20:00:56.108Z,1.91
2023-02-24T20:02:27.985Z,2.34
2023-02-24T20:03:59.614Z,2.42
2023-02-24T20:05:31.118Z,2.50
2023-02-24T20:07:02.688Z,2.34
2023-02-24T20:08:34.269Z,2.35
2023-02-24T20:10:05.672Z,2.24
2023-02-24T20:11:47.143Z,3.04
2023-02-24T20:13:18.887Z,2.57
2023-02-24T20:14:50.610Z,2.68
2023-02-24T20:16:22.647Z,2.99
2023-02-24T20:17:54.212Z,2.52
2023-02-24T20:19:57.436Z,2.72
2023-02-24T20:21:29.198Z,2.76
2023-02-24T20:23:00.958Z,2.63
2023-02-24T20:24:32.644Z,2.79
2023-02-24T20:26:04.524Z,2.99
2023-02-24T20:27:36.002Z,2.88
2023-02-24T20:29:07.933Z,2.79
2023-02-24T20:30:39.810Z,2.77
2023-02-24T20:32:11.798Z,2.86
2023-02-24T20:33:43.812Z,2.91
2023-02-24T20:35:16.145Z,2.98
2023-02-24T20:36:48.025Z,2.92
2023-02-24T20:38:19.787Z,3.07
2023-02-24T20:39:51.772Z,2.87
2023-02-24T20:41:23.491Z,2.95
2023-02-24T20:43:00.340Z,3.12
2023-02-24T20:44:32.063Z,3.03